sensor_id;sensor_type;location;lat;lon;timestamp;temperature;humidity
15111;DHT22;7656;51.954;7.998;2023-01-10T00:02:16;8.30;99.90
15111;DHT22;7656;51.954;7.998;2023-01-10T00:06:38;8.20;99.90
15111;DHT22;7656;51.954;7.998;2023-01-10T00:10:59;8.00;99.90
15111;DHT22;7656;51.954;7.998;2023-01-10T00:15:40;8.10;99.90
15111;DHT22;7656;51.954;7.998;2023-01-10T00:20:01;8.20;99.90
15111;DHT22;7656;51.954;7.998;2023-01-10T00:24:22;8.20;99.90
15111;DHT22;7656;51.954;7.998;2023-01-10T00:28:43;8.20;99.90
15111;DHT22;7656;51.954;7.998;2023-01-10T00:33:05;8.30;99.90
15111;DHT22;7656;51.954;7.998;2023-01-10T00:37:27;8.10;99.90
15111;DHT22;7656;51.954;7.998;2023-01-10T00:41:48;8.00;99.90
15111;DHT22;7656;51.954;7.998;2023-01-10T00:46:28;8.20;99.90
15111;DHT22;7656;51.954;7.998;2023-01-10T00:50:49;8.30;99.90
15111;DHT22;7656;51.954;7.998;2023-01-10T00:55:10;8.30;99.90
15111;DHT22;7656;51.954;7.998;2023-01-10T00:59:31;8.20;99.90
15111;DHT22;7656;51.954;7.998;2023-01-10T01:03:52;8.10;99.90
15111;DHT22;7656;51.954;7.998;2023-01-10T01:08:14;7.90;99.90
15111;DHT22;7656;51.954;7.998;2023-01-10T01:12:36;7.80;99.90
15111;DHT22;7656;51.954;7.998;2023-01-10T01:16:57;7.80;99.90
15111;DHT22;7656;51.954;7.998;2023-01-10T01:21:18;7.80;99.90
15111;DHT22;7656;51.954;7.998;2023-01-10T01:25:41;7.70;99.90
15111;DHT22;7656;51.954;7.998;2023-01-10T01:30:02;7.60;99.90
15111;DHT22;7656;51.954;7.998;2023-01-10T01:34:25;7.50;99.90
15111;DHT22;7656;51.954;7.998;2023-01-10T01:38:46;7.40;99.90
15111;DHT22;7656;51.954;7.998;2023-01-10T01:43:23;7.10;99.90
15111;DHT22;7656;51.954;7.998;2023-01-10T01:52:21;7.10;99.90
15111;DHT22;7656;51.954;7.998;2023-01-10T01:56:54;7.30;99.90
15111;DHT22;7656;51.954;7.998;2023-01-10T02:01:18;7.40;99.90
15111;DHT22;7656;51.954;7.998;2023-01-10T02:05:39;7.30;99.90
15111;DHT22;7656;51.954;7.998;2023-01-10T02:14:36;7.20;99.90
15111;DHT22;7656;51.954;7.998;2023-01-10T02:18:58;7.10;99.90
15111;DHT22;7656;51.954;7.998;2023-01-10T02:24:03;7.10;99.90
15111;DHT22;7656;51.954;7.998;2023-01-10T02:38:43;7.30;99.90
15111;DHT22;7656;51.954;7.998;2023-01-10T02:43:15;7.40;99.90
15111;DHT22;7656;51.954;7.998;2023-01-10T02:47:43;7.40;99.90
15111;DHT22;7656;51.954;7.998;2023-01-10T02:52:04;7.40;99.90
15111;DHT22;7656;51.954;7.998;2023-01-10T03:00:56;7.40;99.90
15111;DHT22;7656;51.954;7.998;2023-01-10T03:10:13;7.30;99.90
15111;DHT22;7656;51.954;7.998;2023-01-10T03:14:37;7.50;99.90
15111;DHT22;7656;51.954;7.998;2023-01-10T03:19:11;7.50;99.90
15111;DHT22;7656;51.954;7.998;2023-01-10T03:23:35;7.50;99.90
15111;DHT22;7656;51.954;7.998;2023-01-10T03:28:09;7.50;99.90
15111;DHT22;7656;51.954;7.998;2023-01-10T03:32:33;7.50;99.90
15111;DHT22;7656;51.954;7.998;2023-01-10T03:37:17;7.50;99.90
15111;DHT22;7656;51.954;7.998;2023-01-10T03:46:45;7.70;99.90
15111;DHT22;7656;51.954;7.998;2023-01-10T03:51:09;7.80;99.90
15111;DHT22;7656;51.954;7.998;2023-01-10T03:55:32;7.60;99.90
15111;DHT22;7656;51.954;7.998;2023-01-10T03:59:56;7.50;99.90
15111;DHT22;7656;51.954;7.998;2023-01-10T04:04:18;7.40;99.90
15111;DHT22;7656;51.954;7.998;2023-01-10T04:08:39;7.30;99.90
15111;DHT22;7656;51.954;7.998;2023-01-10T04:13:00;7.40;99.90
15111;DHT22;7656;51.954;7.998;2023-01-10T04:17:24;7.30;99.90
15111;DHT22;7656;51.954;7.998;2023-01-10T04:21:45;7.20;99.90
15111;DHT22;7656;51.954;7.998;2023-01-10T04:26:06;7.40;99.90
15111;DHT22;7656;51.954;7.998;2023-01-10T04:30:28;7.10;99.90
15111;DHT22;7656;51.954;7.998;2023-01-10T04:34:49;7.10;99.90
15111;DHT22;7656;51.954;7.998;2023-01-10T04:39:10;6.90;99.90
15111;DHT22;7656;51.954;7.998;2023-01-10T04:43:31;6.90;99.90
15111;DHT22;7656;51.954;7.998;2023-01-10T04:47:52;6.90;99.90
15111;DHT22;7656;51.954;7.998;2023-01-10T04:52:15;6.90;99.90
15111;DHT22;7656;51.954;7.998;2023-01-10T04:56:37;7.10;99.90
15111;DHT22;7656;51.954;7.998;2023-01-10T05:00:58;6.90;99.90
15111;DHT22;7656;51.954;7.998;2023-01-10T05:05:19;6.80;99.90
15111;DHT22;7656;51.954;7.998;2023-01-10T05:09:40;6.70;99.90
15111;DHT22;7656;51.954;7.998;2023-01-10T05:14:02;6.90;99.90
15111;DHT22;7656;51.954;7.998;2023-01-10T05:18:24;6.80;99.90
15111;DHT22;7656;51.954;7.998;2023-01-10T05:22:46;6.80;99.90
15111;DHT22;7656;51.954;7.998;2023-01-10T05:27:08;6.80;99.90
15111;DHT22;7656;51.954;7.998;2023-01-10T05:31:29;6.90;99.90
15111;DHT22;7656;51.954;7.998;2023-01-10T05:35:51;7.00;99.90
15111;DHT22;7656;51.954;7.998;2023-01-10T05:40:12;7.00;99.90
15111;DHT22;7656;51.954;7.998;2023-01-10T05:44:33;7.10;99.90
15111;DHT22;7656;51.954;7.998;2023-01-10T05:48:54;7.20;99.90
15111;DHT22;7656;51.954;7.998;2023-01-10T05:53:15;7.30;99.90
15111;DHT22;7656;51.954;7.998;2023-01-10T05:57:36;7.30;99.90
15111;DHT22;7656;51.954;7.998;2023-01-10T06:01:57;7.20;99.90
15111;DHT22;7656;51.954;7.998;2023-01-10T06:06:18;7.30;99.90
15111;DHT22;7656;51.954;7.998;2023-01-10T06:10:40;7.10;99.90
15111;DHT22;7656;51.954;7.998;2023-01-10T06:15:01;7.20;99.90
15111;DHT22;7656;51.954;7.998;2023-01-10T06:19:23;7.20;99.90
15111;DHT22;7656;51.954;7.998;2023-01-10T06:23:44;6.90;99.90
15111;DHT22;7656;51.954;7.998;2023-01-10T06:28:09;6.80;99.90
15111;DHT22;7656;51.954;7.998;2023-01-10T06:32:32;6.90;99.90
15111;DHT22;7656;51.954;7.998;2023-01-10T06:36:53;7.00;99.90
15111;DHT22;7656;51.954;7.998;2023-01-10T06:41:14;6.80;99.90
15111;DHT22;7656;51.954;7.998;2023-01-10T06:45:35;7.00;99.90
15111;DHT22;7656;51.954;7.998;2023-01-10T06:49:56;7.00;99.90
15111;DHT22;7656;51.954;7.998;2023-01-10T06:54:17;7.00;99.90
15111;DHT22;7656;51.954;7.998;2023-01-10T06:58:38;7.00;99.90
15111;DHT22;7656;51.954;7.998;2023-01-10T07:03:00;7.00;99.90
15111;DHT22;7656;51.954;7.998;2023-01-10T07:07:22;7.10;99.90
15111;DHT22;7656;51.954;7.998;2023-01-10T07:11:43;7.10;99.90
15111;DHT22;7656;51.954;7.998;2023-01-10T07:16:06;7.10;99.90
15111;DHT22;7656;51.954;7.998;2023-01-10T07:20:29;7.10;99.90
15111;DHT22;7656;51.954;7.998;2023-01-10T07:24:50;7.10;99.90
15111;DHT22;7656;51.954;7.998;2023-01-10T07:29:11;7.00;99.90
15111;DHT22;7656;51.954;7.998;2023-01-10T07:33:32;7.00;99.90
15111;DHT22;7656;51.954;7.998;2023-01-10T07:37:57;7.00;99.90
15111;DHT22;7656;51.954;7.998;2023-01-10T07:42:19;6.90;99.90
15111;DHT22;7656;51.954;7.998;2023-01-10T07:46:40;6.80;99.90
15111;DHT22;7656;51.954;7.998;2023-01-10T07:51:01;6.90;99.90
15111;DHT22;7656;51.954;7.998;2023-01-10T07:55:23;7.00;99.90
15111;DHT22;7656;51.954;7.998;2023-01-10T07:59:44;6.70;99.90
15111;DHT22;7656;51.954;7.998;2023-01-10T08:04:05;6.70;99.90
15111;DHT22;7656;51.954;7.998;2023-01-10T08:08:27;7.00;99.90
15111;DHT22;7656;51.954;7.998;2023-01-10T08:12:48;6.70;99.90
15111;DHT22;7656;51.954;7.998;2023-01-10T08:17:09;6.90;99.90
15111;DHT22;7656;51.954;7.998;2023-01-10T08:21:31;6.60;99.90
15111;DHT22;7656;51.954;7.998;2023-01-10T08:25:52;6.80;99.90
15111;DHT22;7656;51.954;7.998;2023-01-10T08:30:14;6.70;99.90
15111;DHT22;7656;51.954;7.998;2023-01-10T08:34:35;6.70;99.90
15111;DHT22;7656;51.954;7.998;2023-01-10T08:38:56;6.80;99.90
15111;DHT22;7656;51.954;7.998;2023-01-10T08:43:17;6.90;99.90
15111;DHT22;7656;51.954;7.998;2023-01-10T08:47:38;7.20;99.90
15111;DHT22;7656;51.954;7.998;2023-01-10T08:52:00;7.20;99.90
15111;DHT22;7656;51.954;7.998;2023-01-10T08:56:22;7.10;99.90
15111;DHT22;7656;51.954;7.998;2023-01-10T09:00:43;7.00;99.90
15111;DHT22;7656;51.954;7.998;2023-01-10T09:05:05;7.00;99.90
15111;DHT22;7656;51.954;7.998;2023-01-10T09:09:26;7.10;99.90
15111;DHT22;7656;51.954;7.998;2023-01-10T09:13:50;7.30;99.90
15111;DHT22;7656;51.954;7.998;2023-01-10T09:18:12;7.40;99.90
15111;DHT22;7656;51.954;7.998;2023-01-10T09:22:37;7.40;99.90
15111;DHT22;7656;51.954;7.998;2023-01-10T09:26:58;7.70;99.90
15111;DHT22;7656;51.954;7.998;2023-01-10T09:31:19;7.80;99.90
15111;DHT22;7656;51.954;7.998;2023-01-10T09:35:41;7.60;99.90
15111;DHT22;7656;51.954;7.998;2023-01-10T09:40:03;8.10;99.90
15111;DHT22;7656;51.954;7.998;2023-01-10T09:44:42;8.20;99.90
15111;DHT22;7656;51.954;7.998;2023-01-10T09:54:16;7.80;99.90
15111;DHT22;7656;51.954;7.998;2023-01-10T09:58:45;7.90;99.90
15111;DHT22;7656;51.954;7.998;2023-01-10T10:08:17;7.80;99.90
15111;DHT22;7656;51.954;7.998;2023-01-10T10:13:03;7.70;99.90
15111;DHT22;7656;51.954;7.998;2023-01-10T10:17:36;7.70;99.90
15111;DHT22;7656;51.954;7.998;2023-01-10T10:22:12;7.80;99.90
15111;DHT22;7656;51.954;7.998;2023-01-10T10:31:24;8.10;99.90
15111;DHT22;7656;51.954;7.998;2023-01-10T10:35:56;8.30;99.90
15111;DHT22;7656;51.954;7.998;2023-01-10T10:40:26;8.20;99.90
15111;DHT22;7656;51.954;7.998;2023-01-10T10:44:54;8.30;99.90
15111;DHT22;7656;51.954;7.998;2023-01-10T10:54:01;8.80;99.90
15111;DHT22;7656;51.954;7.998;2023-01-10T10:58:23;8.90;99.90
15111;DHT22;7656;51.954;7.998;2023-01-10T11:02:52;9.00;99.90
15111;DHT22;7656;51.954;7.998;2023-01-10T11:07:18;9.10;99.90
15111;DHT22;7656;51.954;7.998;2023-01-10T11:11:44;9.40;99.90
15111;DHT22;7656;51.954;7.998;2023-01-10T11:16:06;9.80;99.90
15111;DHT22;7656;51.954;7.998;2023-01-10T11:20:28;10.20;99.90
15111;DHT22;7656;51.954;7.998;2023-01-10T11:24:54;10.30;99.90
15111;DHT22;7656;51.954;7.998;2023-01-10T11:29:42;10.00;99.90
15111;DHT22;7656;51.954;7.998;2023-01-10T11:39:01;9.80;99.90
15111;DHT22;7656;51.954;7.998;2023-01-10T11:48:18;9.60;99.90
15111;DHT22;7656;51.954;7.998;2023-01-10T11:52:43;9.40;99.90
15111;DHT22;7656;51.954;7.998;2023-01-10T11:57:26;9.60;99.90
15111;DHT22;7656;51.954;7.998;2023-01-10T12:01:58;9.60;99.90
15111;DHT22;7656;51.954;7.998;2023-01-10T12:06:20;10.10;99.90
15111;DHT22;7656;51.954;7.998;2023-01-10T12:10:56;10.40;99.90
15111;DHT22;7656;51.954;7.998;2023-01-10T12:15:26;10.20;99.90
15111;DHT22;7656;51.954;7.998;2023-01-10T12:19:52;9.80;99.90
15111;DHT22;7656;51.954;7.998;2023-01-10T12:24:22;9.60;99.90
15111;DHT22;7656;51.954;7.998;2023-01-10T12:28:52;9.40;99.90
15111;DHT22;7656;51.954;7.998;2023-01-10T12:33:20;9.10;99.90
15111;DHT22;7656;51.954;7.998;2023-01-10T12:38:01;9.20;99.90
15111;DHT22;7656;51.954;7.998;2023-01-10T12:42:51;9.20;99.90
15111;DHT22;7656;51.954;7.998;2023-01-10T12:47:52;9.10;99.90
15111;DHT22;7656;51.954;7.998;2023-01-10T12:52:36;9.60;99.90
15111;DHT22;7656;51.954;7.998;2023-01-10T12:57:22;9.70;99.90
15111;DHT22;7656;51.954;7.998;2023-01-10T13:01:51;9.70;99.90
15111;DHT22;7656;51.954;7.998;2023-01-10T13:06:32;9.40;99.90
15111;DHT22;7656;51.954;7.998;2023-01-10T13:10:56;9.00;99.90
15111;DHT22;7656;51.954;7.998;2023-01-10T13:24:40;9.20;99.90
15111;DHT22;7656;51.954;7.998;2023-01-10T13:29:01;9.20;99.90
15111;DHT22;7656;51.954;7.998;2023-01-10T13:33:25;8.60;99.90
15111;DHT22;7656;51.954;7.998;2023-01-10T13:37:53;8.70;99.90
15111;DHT22;7656;51.954;7.998;2023-01-10T13:42:28;8.50;99.90
15111;DHT22;7656;51.954;7.998;2023-01-10T13:52:26;8.80;99.90
15111;DHT22;7656;51.954;7.998;2023-01-10T13:56:51;8.90;99.90
15111;DHT22;7656;51.954;7.998;2023-01-10T14:01:37;8.60;99.90
15111;DHT22;7656;51.954;7.998;2023-01-10T14:11:07;8.60;99.90
15111;DHT22;7656;51.954;7.998;2023-01-10T14:15:35;8.30;99.90
15111;DHT22;7656;51.954;7.998;2023-01-10T14:24:41;8.10;99.90
15111;DHT22;7656;51.954;7.998;2023-01-10T14:29:08;8.10;99.90
15111;DHT22;7656;51.954;7.998;2023-01-10T14:33:35;7.80;99.90
15111;DHT22;7656;51.954;7.998;2023-01-10T14:37:58;7.80;99.90
15111;DHT22;7656;51.954;7.998;2023-01-10T14:42:25;7.70;99.90
15111;DHT22;7656;51.954;7.998;2023-01-10T14:46:50;7.70;99.90
15111;DHT22;7656;51.954;7.998;2023-01-10T14:51:16;7.60;99.90
15111;DHT22;7656;51.954;7.998;2023-01-10T14:55:41;7.60;99.90
15111;DHT22;7656;51.954;7.998;2023-01-10T15:00:14;7.60;99.90
15111;DHT22;7656;51.954;7.998;2023-01-10T15:04:55;7.60;99.90
15111;DHT22;7656;51.954;7.998;2023-01-10T15:09:17;7.80;99.90
15111;DHT22;7656;51.954;7.998;2023-01-10T15:13:47;7.60;99.90
15111;DHT22;7656;51.954;7.998;2023-01-10T15:22:58;7.50;99.90
15111;DHT22;7656;51.954;7.998;2023-01-10T15:27:21;7.40;99.90
15111;DHT22;7656;51.954;7.998;2023-01-10T15:31:42;7.40;99.90
15111;DHT22;7656;51.954;7.998;2023-01-10T15:36:05;7.40;99.90
15111;DHT22;7656;51.954;7.998;2023-01-10T15:40:31;7.30;99.90
15111;DHT22;7656;51.954;7.998;2023-01-10T15:44:54;7.40;99.90
15111;DHT22;7656;51.954;7.998;2023-01-10T15:49:22;7.30;99.90
15111;DHT22;7656;51.954;7.998;2023-01-10T15:53:55;7.30;99.90
15111;DHT22;7656;51.954;7.998;2023-01-10T15:58:29;7.40;99.90
15111;DHT22;7656;51.954;7.998;2023-01-10T16:02:55;7.40;99.90
15111;DHT22;7656;51.954;7.998;2023-01-10T16:07:31;7.40;99.90
15111;DHT22;7656;51.954;7.998;2023-01-10T16:11:53;7.40;99.90
15111;DHT22;7656;51.954;7.998;2023-01-10T16:16:34;7.40;99.90
15111;DHT22;7656;51.954;7.998;2023-01-10T16:20:57;7.40;99.90
15111;DHT22;7656;51.954;7.998;2023-01-10T16:25:30;7.50;99.90
15111;DHT22;7656;51.954;7.998;2023-01-10T16:29:52;7.40;99.90
15111;DHT22;7656;51.954;7.998;2023-01-10T16:34:13;7.40;99.90
15111;DHT22;7656;51.954;7.998;2023-01-10T16:38:35;7.60;99.90
15111;DHT22;7656;51.954;7.998;2023-01-10T16:42:56;7.30;99.90
15111;DHT22;7656;51.954;7.998;2023-01-10T16:47:35;7.30;99.90
15111;DHT22;7656;51.954;7.998;2023-01-10T16:51:56;7.20;99.90
15111;DHT22;7656;51.954;7.998;2023-01-10T16:56:23;7.30;99.90
15111;DHT22;7656;51.954;7.998;2023-01-10T17:00:50;7.20;99.90
15111;DHT22;7656;51.954;7.998;2023-01-10T17:05:12;7.20;99.90
15111;DHT22;7656;51.954;7.998;2023-01-10T17:09:33;7.20;99.90
15111;DHT22;7656;51.954;7.998;2023-01-10T17:13:55;7.30;99.90
15111;DHT22;7656;51.954;7.998;2023-01-10T17:18:17;7.30;99.90
15111;DHT22;7656;51.954;7.998;2023-01-10T17:22:39;7.30;99.90
15111;DHT22;7656;51.954;7.998;2023-01-10T17:27:01;7.20;99.90
15111;DHT22;7656;51.954;7.998;2023-01-10T17:31:22;7.20;99.90
15111;DHT22;7656;51.954;7.998;2023-01-10T17:35:43;7.20;99.90
15111;DHT22;7656;51.954;7.998;2023-01-10T17:40:05;7.20;99.90
15111;DHT22;7656;51.954;7.998;2023-01-10T17:44:27;7.10;99.90
15111;DHT22;7656;51.954;7.998;2023-01-10T17:48:48;7.10;99.90
15111;DHT22;7656;51.954;7.998;2023-01-10T17:53:09;7.10;99.90
15111;DHT22;7656;51.954;7.998;2023-01-10T17:57:30;7.10;99.90
15111;DHT22;7656;51.954;7.998;2023-01-10T18:01:53;7.00;99.90
15111;DHT22;7656;51.954;7.998;2023-01-10T18:06:14;6.80;99.90
15111;DHT22;7656;51.954;7.998;2023-01-10T18:10:35;6.70;99.90
15111;DHT22;7656;51.954;7.998;2023-01-10T18:14:56;6.60;99.90
15111;DHT22;7656;51.954;7.998;2023-01-10T18:19:17;6.60;99.90
15111;DHT22;7656;51.954;7.998;2023-01-10T18:23:38;6.50;99.90
15111;DHT22;7656;51.954;7.998;2023-01-10T18:27:59;6.40;99.90
15111;DHT22;7656;51.954;7.998;2023-01-10T18:32:21;6.30;99.90
15111;DHT22;7656;51.954;7.998;2023-01-10T18:36:43;6.30;99.90
15111;DHT22;7656;51.954;7.998;2023-01-10T18:41:04;6.30;99.90
15111;DHT22;7656;51.954;7.998;2023-01-10T18:45:25;6.30;99.90
15111;DHT22;7656;51.954;7.998;2023-01-10T18:49:47;6.10;99.90
15111;DHT22;7656;51.954;7.998;2023-01-10T18:54:08;6.10;99.90
15111;DHT22;7656;51.954;7.998;2023-01-10T18:58:32;6.10;99.90
15111;DHT22;7656;51.954;7.998;2023-01-10T19:02:54;6.10;99.90
15111;DHT22;7656;51.954;7.998;2023-01-10T19:07:17;6.10;99.90
15111;DHT22;7656;51.954;7.998;2023-01-10T19:11:38;6.10;99.90
15111;DHT22;7656;51.954;7.998;2023-01-10T19:16:10;6.00;99.90
15111;DHT22;7656;51.954;7.998;2023-01-10T19:20:35;5.90;99.90
15111;DHT22;7656;51.954;7.998;2023-01-10T19:24:56;5.90;99.90
15111;DHT22;7656;51.954;7.998;2023-01-10T19:29:17;5.90;99.90
15111;DHT22;7656;51.954;7.998;2023-01-10T19:33:38;5.90;99.90
15111;DHT22;7656;51.954;7.998;2023-01-10T19:38:01;5.90;99.90
15111;DHT22;7656;51.954;7.998;2023-01-10T19:42:22;6.00;99.90
15111;DHT22;7656;51.954;7.998;2023-01-10T19:46:43;5.90;99.90
15111;DHT22;7656;51.954;7.998;2023-01-10T19:51:09;5.90;99.90
15111;DHT22;7656;51.954;7.998;2023-01-10T19:55:31;5.90;99.90
15111;DHT22;7656;51.954;7.998;2023-01-10T19:59:52;6.00;99.90
15111;DHT22;7656;51.954;7.998;2023-01-10T20:04:17;6.10;99.90
15111;DHT22;7656;51.954;7.998;2023-01-10T20:08:39;6.20;99.90
15111;DHT22;7656;51.954;7.998;2023-01-10T20:13:00;6.20;99.90
15111;DHT22;7656;51.954;7.998;2023-01-10T20:17:21;6.30;99.90
15111;DHT22;7656;51.954;7.998;2023-01-10T20:21:43;6.30;99.90
15111;DHT22;7656;51.954;7.998;2023-01-10T20:26:06;6.40;99.90
15111;DHT22;7656;51.954;7.998;2023-01-10T20:30:29;6.50;99.90
15111;DHT22;7656;51.954;7.998;2023-01-10T20:34:50;6.50;99.90
15111;DHT22;7656;51.954;7.998;2023-01-10T20:39:11;6.50;99.90
15111;DHT22;7656;51.954;7.998;2023-01-10T20:43:33;6.60;99.90
15111;DHT22;7656;51.954;7.998;2023-01-10T20:47:54;6.60;99.90
15111;DHT22;7656;51.954;7.998;2023-01-10T20:52:16;6.70;99.90
15111;DHT22;7656;51.954;7.998;2023-01-10T20:56:37;6.80;99.90
15111;DHT22;7656;51.954;7.998;2023-01-10T21:00:59;6.80;99.90
15111;DHT22;7656;51.954;7.998;2023-01-10T21:05:20;6.80;99.90
15111;DHT22;7656;51.954;7.998;2023-01-10T21:09:41;6.80;99.90
15111;DHT22;7656;51.954;7.998;2023-01-10T21:14:02;6.90;99.90
15111;DHT22;7656;51.954;7.998;2023-01-10T21:18:28;6.90;99.90
15111;DHT22;7656;51.954;7.998;2023-01-10T21:22:53;7.00;99.90
15111;DHT22;7656;51.954;7.998;2023-01-10T21:27:14;7.00;99.90
15111;DHT22;7656;51.954;7.998;2023-01-10T21:31:35;7.00;99.90
15111;DHT22;7656;51.954;7.998;2023-01-10T21:35:57;7.00;99.90
15111;DHT22;7656;51.954;7.998;2023-01-10T21:40:18;7.00;99.90
15111;DHT22;7656;51.954;7.998;2023-01-10T21:44:39;7.00;99.90
15111;DHT22;7656;51.954;7.998;2023-01-10T21:49:01;6.90;99.90
15111;DHT22;7656;51.954;7.998;2023-01-10T21:53:22;7.00;99.90
15111;DHT22;7656;51.954;7.998;2023-01-10T21:57:44;7.00;99.90
15111;DHT22;7656;51.954;7.998;2023-01-10T22:02:11;7.10;99.90
15111;DHT22;7656;51.954;7.998;2023-01-10T22:06:34;7.10;99.90
15111;DHT22;7656;51.954;7.998;2023-01-10T22:10:55;7.10;99.90
15111;DHT22;7656;51.954;7.998;2023-01-10T22:15:16;7.40;99.90
15111;DHT22;7656;51.954;7.998;2023-01-10T22:19:38;7.30;99.90
15111;DHT22;7656;51.954;7.998;2023-01-10T22:23:59;7.30;99.90
15111;DHT22;7656;51.954;7.998;2023-01-10T22:28:20;7.30;99.90
15111;DHT22;7656;51.954;7.998;2023-01-10T22:32:41;7.40;99.90
15111;DHT22;7656;51.954;7.998;2023-01-10T22:37:03;7.50;99.90
15111;DHT22;7656;51.954;7.998;2023-01-10T22:41:24;7.70;99.90
15111;DHT22;7656;51.954;7.998;2023-01-10T22:45:46;7.60;99.90
15111;DHT22;7656;51.954;7.998;2023-01-10T22:50:07;7.70;99.90
15111;DHT22;7656;51.954;7.998;2023-01-10T22:54:29;7.80;99.90
15111;DHT22;7656;51.954;7.998;2023-01-10T22:58:51;7.80;99.90
15111;DHT22;7656;51.954;7.998;2023-01-10T23:03:12;7.80;99.90
15111;DHT22;7656;51.954;7.998;2023-01-10T23:07:33;7.90;99.90
15111;DHT22;7656;51.954;7.998;2023-01-10T23:11:54;7.90;99.90
15111;DHT22;7656;51.954;7.998;2023-01-10T23:16:18;7.90;99.90
15111;DHT22;7656;51.954;7.998;2023-01-10T23:20:41;8.00;99.90
15111;DHT22;7656;51.954;7.998;2023-01-10T23:25:02;8.10;99.90
15111;DHT22;7656;51.954;7.998;2023-01-10T23:29:24;8.00;99.90
15111;DHT22;7656;51.954;7.998;2023-01-10T23:33:45;8.00;99.90
15111;DHT22;7656;51.954;7.998;2023-01-10T23:38:06;8.10;99.90
15111;DHT22;7656;51.954;7.998;2023-01-10T23:42:28;8.20;99.90
15111;DHT22;7656;51.954;7.998;2023-01-10T23:46:49;8.10;99.90
15111;DHT22;7656;51.954;7.998;2023-01-10T23:51:10;8.00;99.90
15111;DHT22;7656;51.954;7.998;2023-01-10T23:55:32;8.10;99.90
15111;DHT22;7656;51.954;7.998;2023-01-10T23:59:54;8.20;99.90
